Time;durP1;ratioP1;P1;durP2;ratioP2;P2;SDS_P1;SDS_P2;PMS_P1;PMS_P2;Temp;Humidity;BMP_temperature;BMP_pressure;BME280_temperature;BME280_humidity;BME280_pressure;Samples;Min_cycle;Max_cycle;Signal;HPM_P1;HPM_P2
2023/12/29 00:01:15;;;;;;;;;;;19.80;61.10;;;;;;5076486;28;19959;-65
2023/12/29 00:03:40;;;;;;;;;;;19.80;61.10;;;;;;5077864;28;19974;-66
2023/12/29 00:06:06;;;;;;;;;;;19.80;61.10;;;;;;5095499;28;19924;-65
2023/12/29 00:08:31;;;;;;;;;;;19.70;61.00;;;;;;5095145;28;20042;-65
2023/12/29 00:10:57;;;;;;;;;;;19.80;61.00;;;;;;5077634;28;20015;-66
2023/12/29 00:13:23;;;;;;;;;;;19.70;61.00;;;;;;5077962;28;19978;-66
2023/12/29 00:15:52;;;;;;;;;;;19.70;61.00;;;;;;5087214;28;19925;-65
2023/12/29 00:18:18;;;;;;;;;;;19.70;60.90;;;;;;5089337;28;19924;-65
2023/12/29 00:20:43;;;;;;;;;;;19.70;60.90;;;;;;5077031;28;20356;-65
2023/12/29 00:23:09;;;;;;;;;;;19.70;60.90;;;;;;5077055;28;19977;-65
2023/12/29 00:25:37;;;;;;;;;;;19.70;60.90;;;;;;5077611;28;19924;-65
2023/12/29 00:28:03;;;;;;;;;;;19.70;60.90;;;;;;5109980;28;20370;-65
2023/12/29 00:30:32;;;;;;;;;;;19.70;60.90;;;;;;5077202;28;20368;-66
2023/12/29 00:32:57;;;;;;;;;;;19.60;60.90;;;;;;5077381;28;20312;-65
2023/12/29 00:35:23;;;;;;;;;;;19.70;60.90;;;;;;5094222;28;19968;-65
2023/12/29 00:37:49;;;;;;;;;;;19.60;60.90;;;;;;5095524;28;19925;-65
2023/12/29 00:40:15;;;;;;;;;;;19.60;60.90;;;;;;5076945;28;19924;-65
2023/12/29 00:42:40;;;;;;;;;;;19.60;60.90;;;;;;5076572;28;20072;-65
2023/12/29 00:45:06;;;;;;;;;;;19.60;60.90;;;;;;5094896;28;20279;-65
2023/12/29 00:47:32;;;;;;;;;;;19.60;60.90;;;;;;5095203;28;19970;-65
2023/12/29 00:49:57;;;;;;;;;;;19.60;60.90;;;;;;5094194;28;19954;-65
2023/12/29 00:52:22;;;;;;;;;;;19.60;60.80;;;;;;5094998;28;19932;-65
2023/12/29 00:54:48;;;;;;;;;;;19.60;60.90;;;;;;5094638;28;20390;-65
2023/12/29 00:57:14;;;;;;;;;;;19.60;60.90;;;;;;5092773;28;19925;-65
2023/12/29 00:59:40;;;;;;;;;;;19.50;60.80;;;;;;5095118;28;19924;-65
2023/12/29 01:02:06;;;;;;;;;;;19.50;60.90;;;;;;5094641;28;19924;-64
2023/12/29 01:04:31;;;;;;;;;;;19.50;60.80;;;;;;5075607;28;19927;-65
2023/12/29 01:06:57;;;;;;;;;;;19.50;61.40;;;;;;5075831;28;19928;-65
2023/12/29 01:09:22;;;;;;;;;;;19.50;60.90;;;;;;5076556;28;19975;-65
2023/12/29 01:11:48;;;;;;;;;;;19.50;60.80;;;;;;5075411;28;19924;-65
2023/12/29 01:14:14;;;;;;;;;;;19.50;60.90;;;;;;5094501;28;19947;-65
2023/12/29 01:16:40;;;;;;;;;;;19.50;60.90;;;;;;5094851;28;19959;-65
2023/12/29 01:19:05;;;;;;;;;;;19.50;60.90;;;;;;5093505;28;19975;-65
2023/12/29 01:21:34;;;;;;;;;;;19.50;60.90;;;;;;5075812;28;19968;-65
2023/12/29 01:24:07;;;;;;;;;;;19.50;60.80;;;;;;5074780;28;19931;-65
2023/12/29 01:26:38;;;;;;;;;;;19.50;60.90;;;;;;5110099;28;20472;-65
2023/12/29 01:29:04;;;;;;;;;;;19.50;60.90;;;;;;5093992;28;19967;-65
2023/12/29 01:31:32;;;;;;;;;;;19.50;60.80;;;;;;5092756;28;19955;-65
2023/12/29 01:33:58;;;;;;;;;;;19.50;60.90;;;;;;5076107;28;20291;-65
2023/12/29 01:36:23;;;;;;;;;;;19.50;60.90;;;;;;5094028;28;19931;-65
2023/12/29 01:38:49;;;;;;;;;;;19.50;60.90;;;;;;5074553;28;19931;-65
2023/12/29 01:41:14;;;;;;;;;;;19.50;60.90;;;;;;5075363;28;19924;-64
2023/12/29 01:43:59;;;;;;;;;;;19.40;60.80;;;;;;5076123;28;19931;-65
2023/12/29 01:46:33;;;;;;;;;;;19.40;60.80;;;;;;5075445;28;19931;-65
2023/12/29 01:48:59;;;;;;;;;;;19.40;60.80;;;;;;5093780;28;19931;-65
2023/12/29 01:51:25;;;;;;;;;;;19.40;60.90;;;;;;5059106;28;19924;-65
2023/12/29 01:53:51;;;;;;;;;;;19.40;60.90;;;;;;5074822;28;19924;-65
2023/12/29 01:56:16;;;;;;;;;;;19.40;60.80;;;;;;5093525;28;20391;-65
2023/12/29 01:58:42;;;;;;;;;;;19.40;60.80;;;;;;5094211;28;19924;-64
2023/12/29 02:01:08;;;;;;;;;;;19.40;60.80;;;;;;5074589;28;19928;-65
2023/12/29 02:03:34;;;;;;;;;;;19.40;60.80;;;;;;5075849;28;19924;-65
2023/12/29 02:05:59;;;;;;;;;;;19.40;60.80;;;;;;5074266;28;19926;-65
2023/12/29 02:08:25;;;;;;;;;;;19.40;60.90;;;;;;5093745;28;19924;-65
2023/12/29 02:10:50;;;;;;;;;;;19.40;60.90;;;;;;5075746;28;19924;-65
2023/12/29 02:13:16;;;;;;;;;;;19.40;60.90;;;;;;5074825;28;19954;-65
2023/12/29 02:15:42;;;;;;;;;;;19.30;60.80;;;;;;5075775;28;20298;-65
2023/12/29 02:18:07;;;;;;;;;;;19.30;60.80;;;;;;5058550;28;19924;-65
2023/12/29 02:20:33;;;;;;;;;;;19.30;60.80;;;;;;5074453;28;20435;-64
2023/12/29 02:22:58;;;;;;;;;;;19.30;60.80;;;;;;5108520;28;19978;-65
2023/12/29 02:25:24;;;;;;;;;;;19.30;60.80;;;;;;5075549;28;19924;-65
2023/12/29 02:27:51;;;;;;;;;;;19.30;60.80;;;;;;5057934;28;19931;-65
2023/12/29 02:30:20;;;;;;;;;;;19.30;60.80;;;;;;5058486;28;19924;-64
2023/12/29 02:32:46;;;;;;;;;;;19.30;60.80;;;;;;5093338;28;19924;-65
2023/12/29 02:35:32;;;;;;;;;;;19.30;60.80;;;;;;5057535;28;19928;-64
2023/12/29 02:37:57;;;;;;;;;;;19.30;60.80;;;;;;5073590;28;20023;-64
2023/12/29 02:40:22;;;;;;;;;;;19.30;60.80;;;;;;5058668;28;20022;-65
2023/12/29 02:42:48;;;;;;;;;;;19.30;60.80;;;;;;5074045;28;19924;-64
2023/12/29 02:45:14;;;;;;;;;;;19.30;60.80;;;;;;5092857;28;19920;-64
2023/12/29 02:47:40;;;;;;;;;;;19.20;60.80;;;;;;5074984;28;19931;-64
2023/12/29 02:50:05;;;;;;;;;;;19.30;60.80;;;;;;5073977;28;19924;-65
2023/12/29 02:52:31;;;;;;;;;;;19.20;60.70;;;;;;5108966;28;19978;-65
2023/12/29 02:54:56;;;;;;;;;;;19.30;60.80;;;;;;5092913;28;19924;-64
2023/12/29 02:57:22;;;;;;;;;;;19.20;60.80;;;;;;5072500;28;20039;-64
2023/12/29 02:59:47;;;;;;;;;;;19.20;60.80;;;;;;5091201;28;19947;-64
2023/12/29 03:02:13;;;;;;;;;;;19.20;60.80;;;;;;5072901;28;19978;-65
2023/12/29 03:04:38;;;;;;;;;;;19.20;60.80;;;;;;5073579;28;19959;-64
2023/12/29 03:07:04;;;;;;;;;;;19.20;60.70;;;;;;5074197;28;19952;-64
2023/12/29 03:09:29;;;;;;;;;;;19.20;60.70;;;;;;5072657;28;19924;-65
2023/12/29 03:11:55;;;;;;;;;;;19.20;60.70;;;;;;5073468;28;20020;-64
2023/12/29 03:14:20;;;;;;;;;;;19.20;60.70;;;;;;5074848;28;19927;-64
2023/12/29 03:16:46;;;;;;;;;;;19.20;60.70;;;;;;5073790;28;20451;-65
2023/12/29 03:19:11;;;;;;;;;;;19.20;60.70;;;;;;5074085;28;19928;-64
2023/12/29 03:21:37;;;;;;;;;;;19.20;61.30;;;;;;5092388;28;19931;-64
2023/12/29 03:24:02;;;;;;;;;;;19.20;60.70;;;;;;5069783;28;20406;-66
2023/12/29 03:26:28;;;;;;;;;;;19.20;60.70;;;;;;5070965;28;19925;-65
2023/12/29 03:28:54;;;;;;;;;;;19.10;60.60;;;;;;5071129;28;19932;-65
2023/12/29 03:31:19;;;;;;;;;;;19.10;60.60;;;;;;5070409;28;19924;-65
2023/12/29 03:33:44;;;;;;;;;;;19.10;60.60;;;;;;5071174;28;19921;-65
2023/12/29 03:36:10;;;;;;;;;;;19.10;60.60;;;;;;5072093;28;19924;-65
2023/12/29 03:38:36;;;;;;;;;;;19.10;60.60;;;;;;5070563;28;19924;-65
2023/12/29 03:41:02;;;;;;;;;;;19.10;60.60;;;;;;5070741;28;19931;-65
2023/12/29 03:43:28;;;;;;;;;;;19.10;60.60;;;;;;5071718;28;20007;-66
2023/12/29 03:45:53;;;;;;;;;;;19.10;60.60;;;;;;5070022;28;20003;-65
2023/12/29 03:48:18;;;;;;;;;;;19.10;60.60;;;;;;5071250;28;19947;-65
2023/12/29 03:50:44;;;;;;;;;;;19.10;60.60;;;;;;5070998;28;20065;-65
2023/12/29 03:53:09;;;;;;;;;;;19.10;60.60;;;;;;5071471;28;19924;-65
2023/12/29 03:55:35;;;;;;;;;;;19.10;60.60;;;;;;5076004;28;19979;-65
2023/12/29 03:58:02;;;;;;;;;;;19.10;60.60;;;;;;5075504;28;19925;-65
2023/12/29 04:00:27;;;;;;;;;;;19.10;60.60;;;;;;5073638;28;19932;-65
2023/12/29 04:02:53;;;;;;;;;;;19.10;60.50;;;;;;5074677;28;19925;-65
2023/12/29 04:05:19;;;;;;;;;;;19.20;60.60;;;;;;5074580;28;20024;-65
2023/12/29 04:07:44;;;;;;;;;;;19.20;60.50;;;;;;5073403;28;19931;-65
2023/12/29 04:10:10;;;;;;;;;;;19.20;60.60;;;;;;5073952;28;19932;-64
2023/12/29 04:12:36;;;;;;;;;;;19.20;60.50;;;;;;5075083;28;19970;-65
2023/12/29 04:15:02;;;;;;;;;;;19.20;60.60;;;;;;5074155;28;20014;-65
2023/12/29 04:17:28;;;;;;;;;;;19.20;60.60;;;;;;5074081;28;19974;-65
2023/12/29 04:19:54;;;;;;;;;;;19.20;60.50;;;;;;5074258;28;19929;-65
2023/12/29 04:22:19;;;;;;;;;;;19.20;60.50;;;;;;5074116;28;20007;-65
2023/12/29 04:24:45;;;;;;;;;;;19.20;60.50;;;;;;5074142;28;19924;-65
2023/12/29 04:27:10;;;;;;;;;;;19.20;60.50;;;;;;5073277;28;19955;-65
2023/12/29 04:29:36;;;;;;;;;;;19.20;60.50;;;;;;5073859;28;19924;-65
2023/12/29 04:32:01;;;;;;;;;;;19.30;60.50;;;;;;5073909;28;19968;-64
2023/12/29 04:34:26;;;;;;;;;;;19.20;60.40;;;;;;5073538;28;19925;-65
2023/12/29 04:36:52;;;;;;;;;;;19.30;60.50;;;;;;5073767;28;19929;-65
2023/12/29 04:39:17;;;;;;;;;;;19.30;60.50;;;;;;5074477;28;20344;-65
2023/12/29 04:41:43;;;;;;;;;;;19.30;60.40;;;;;;5074174;28;19924;-65
2023/12/29 04:44:08;;;;;;;;;;;19.30;60.40;;;;;;5073651;28;19931;-65
2023/12/29 04:46:34;;;;;;;;;;;19.30;60.40;;;;;;5073964;28;20380;-65
2023/12/29 04:48:59;;;;;;;;;;;19.40;60.40;;;;;;5072512;28;19977;-65
2023/12/29 04:51:25;;;;;;;;;;;19.40;60.40;;;;;;5073665;28;19924;-65
2023/12/29 04:53:50;;;;;;;;;;;19.40;60.40;;;;;;5072892;28;20011;-65
2023/12/29 04:56:16;;;;;;;;;;;19.40;60.40;;;;;;5072710;28;19948;-65
2023/12/29 04:58:41;;;;;;;;;;;19.40;60.30;;;;;;5073303;28;19977;-65
2023/12/29 05:01:08;;;;;;;;;;;19.40;60.30;;;;;;5072950;28;20291;-65
2023/12/29 05:03:33;;;;;;;;;;;19.50;60.30;;;;;;5072783;28;19967;-65
2023/12/29 05:05:59;;;;;;;;;;;19.50;60.30;;;;;;5072841;28;20395;-65
2023/12/29 05:08:24;;;;;;;;;;;19.50;60.30;;;;;;5073965;28;19932;-64
2023/12/29 05:10:50;;;;;;;;;;;19.50;60.20;;;;;;5072637;28;19925;-65
2023/12/29 05:13:16;;;;;;;;;;;19.50;60.20;;;;;;5073118;28;20417;-65
2023/12/29 05:15:41;;;;;;;;;;;19.50;60.20;;;;;;5072906;28;19925;-65
2023/12/29 05:18:07;;;;;;;;;;;19.50;60.20;;;;;;5073265;28;19924;-65
2023/12/29 05:20:33;;;;;;;;;;;19.50;60.20;;;;;;5106653;28;20368;-65
2023/12/29 05:22:58;;;;;;;;;;;19.50;60.20;;;;;;5082115;28;19930;-65
2023/12/29 05:25:24;;;;;;;;;;;19.50;60.20;;;;;;5076529;28;20065;-65
2023/12/29 05:27:50;;;;;;;;;;;19.50;60.10;;;;;;5076392;28;20355;-65
2023/12/29 05:30:15;;;;;;;;;;;19.50;60.10;;;;;;5109224;28;19924;-65
2023/12/29 05:32:41;;;;;;;;;;;19.60;60.10;;;;;;5109995;28;19927;-65
2023/12/29 05:35:07;;;;;;;;;;;19.60;60.10;;;;;;5075848;28;19924;-65
2023/12/29 05:37:32;;;;;;;;;;;19.60;60.00;;;;;;5109132;28;19928;-65
2023/12/29 05:39:58;;;;;;;;;;;19.60;60.10;;;;;;5076116;28;19963;-64
2023/12/29 05:42:23;;;;;;;;;;;19.60;60.00;;;;;;5094373;28;19969;-65
2023/12/29 05:44:49;;;;;;;;;;;19.60;60.00;;;;;;5075206;28;20014;-65
2023/12/29 05:47:15;;;;;;;;;;;19.60;60.00;;;;;;5093890;28;19977;-65
2023/12/29 05:49:40;;;;;;;;;;;19.60;60.00;;;;;;5094255;28;19982;-65
2023/12/29 05:52:06;;;;;;;;;;;19.60;60.00;;;;;;5074689;28;20395;-65
2023/12/29 05:54:32;;;;;;;;;;;19.60;60.00;;;;;;5075784;28;19978;-66
2023/12/29 05:56:58;;;;;;;;;;;19.70;60.00;;;;;;5093623;28;19924;-65
2023/12/29 05:59:23;;;;;;;;;;;19.70;60.00;;;;;;5074822;28;19985;-65
2023/12/29 06:01:49;;;;;;;;;;;19.70;60.00;;;;;;5075299;28;20010;-65
2023/12/29 06:04:14;;;;;;;;;;;19.70;60.00;;;;;;5093246;28;19924;-65
2023/12/29 06:06:41;;;;;;;;;;;19.70;60.00;;;;;;5074732;28;19931;-65
2023/12/29 06:09:07;;;;;;;;;;;19.70;60.00;;;;;;5075146;28;19924;-66
2023/12/29 06:11:33;;;;;;;;;;;19.70;60.00;;;;;;5093851;28;20371;-65
2023/12/29 06:13:59;;;;;;;;;;;19.70;60.00;;;;;;5074378;28;19975;-65
2023/12/29 06:16:26;;;;;;;;;;;19.70;60.00;;;;;;5093083;28;20011;-65
2023/12/29 06:18:52;;;;;;;;;;;19.70;60.00;;;;;;5090725;28;20428;-65
2023/12/29 06:21:18;;;;;;;;;;;19.70;60.00;;;;;;5090225;28;19924;-65
2023/12/29 06:23:44;;;;;;;;;;;19.70;60.00;;;;;;5093279;28;19923;-65
2023/12/29 06:26:19;;;;;;;;;;;19.70;60.00;;;;;;5092872;28;19931;-65
2023/12/29 06:28:45;;;;;;;;;;;19.80;60.00;;;;;;5075260;28;19924;-65
2023/12/29 06:31:10;;;;;;;;;;;19.80;60.00;;;;;;5093023;28;19930;-65
2023/12/29 06:33:36;;;;;;;;;;;19.80;60.00;;;;;;5074806;28;19932;-65
2023/12/29 06:36:02;;;;;;;;;;;19.80;60.00;;;;;;5074804;28;19924;-65
2023/12/29 06:38:27;;;;;;;;;;;19.80;60.00;;;;;;5074935;28;19920;-65
2023/12/29 06:40:53;;;;;;;;;;;19.80;59.90;;;;;;5074246;28;19928;-65
2023/12/29 06:43:18;;;;;;;;;;;19.80;59.90;;;;;;5093439;28;19925;-65
2023/12/29 06:45:44;;;;;;;;;;;19.80;60.00;;;;;;5092862;28;20288;-65
2023/12/29 06:48:09;;;;;;;;;;;19.80;59.90;;;;;;5073997;28;19970;-65
2023/12/29 06:50:35;;;;;;;;;;;19.80;59.90;;;;;;5093110;28;19969;-65
2023/12/29 06:53:02;;;;;;;;;;;19.80;59.90;;;;;;5091670;28;19959;-65
2023/12/29 06:55:28;;;;;;;;;;;19.80;59.90;;;;;;5092132;28;20268;-64
2023/12/29 06:57:53;;;;;;;;;;;19.80;59.90;;;;;;5093020;28;19935;-65
2023/12/29 07:00:19;;;;;;;;;;;19.80;59.90;;;;;;5092957;28;19928;-65
2023/12/29 07:02:44;;;;;;;;;;;19.80;59.80;;;;;;5092518;28;19928;-64
2023/12/29 07:05:10;;;;;;;;;;;19.80;59.80;;;;;;5092882;28;19946;-64
2023/12/29 07:07:37;;;;;;;;;;;19.90;60.00;;;;;;5092810;28;20329;-64
2023/12/29 07:10:03;;;;;;;;;;;19.90;59.90;;;;;;5091807;28;19924;-65
2023/12/29 07:12:29;;;;;;;;;;;19.90;60.00;;;;;;5109146;28;19977;-65
2023/12/29 07:14:54;;;;;;;;;;;19.90;59.90;;;;;;5108510;28;19928;-65
2023/12/29 07:17:20;;;;;;;;;;;19.90;59.90;;;;;;5108107;28;19924;-65
2023/12/29 07:19:45;;;;;;;;;;;19.90;60.00;;;;;;5093134;28;19969;-66
2023/12/29 07:22:11;;;;;;;;;;;19.90;59.90;;;;;;5108104;28;20024;-65
2023/12/29 07:24:36;;;;;;;;;;;19.90;60.00;;;;;;5092342;28;20332;-66
2023/12/29 07:27:02;;;;;;;;;;;19.90;60.00;;;;;;5108493;28;20380;-66
2023/12/29 07:29:28;;;;;;;;;;;19.90;60.00;;;;;;5096574;28;19924;-64
2023/12/29 07:31:53;;;;;;;;;;;19.90;60.00;;;;;;5110985;28;19932;-65
2023/12/29 07:34:19;;;;;;;;;;;19.90;60.00;;;;;;5112163;28;19924;-64
2023/12/29 07:36:45;;;;;;;;;;;19.90;60.20;;;;;;5095594;28;20291;-63
2023/12/29 07:39:10;;;;;;;;;;;19.90;60.30;;;;;;5096077;28;20356;-64
2023/12/29 07:41:39;;;;;;;;;;;19.90;60.40;;;;;;5078074;28;19924;-66
2023/12/29 07:44:05;;;;;;;;;;;20.00;60.50;;;;;;5077077;28;19931;-64
2023/12/29 07:46:30;;;;;;;;;;;20.00;60.50;;;;;;5096205;28;20396;-65
2023/12/29 07:48:56;;;;;;;;;;;20.00;60.60;;;;;;5077983;28;20376;-64
2023/12/29 07:51:21;;;;;;;;;;;20.00;60.60;;;;;;5094407;28;20368;-63
2023/12/29 07:53:47;;;;;;;;;;;20.00;60.70;;;;;;5094550;28;19924;-64
2023/12/29 07:56:12;;;;;;;;;;;20.00;60.70;;;;;;5093614;28;19924;-62
2023/12/29 07:58:38;;;;;;;;;;;20.00;60.70;;;;;;5076667;28;19924;-63
2023/12/29 08:01:03;;;;;;;;;;;20.00;60.70;;;;;;5095092;28;19924;-63
2023/12/29 08:03:29;;;;;;;;;;;20.00;60.70;;;;;;5077519;28;19967;-63
2023/12/29 08:05:54;;;;;;;;;;;20.00;60.70;;;;;;5089854;28;20303;-62
2023/12/29 08:08:20;;;;;;;;;;;20.10;60.80;;;;;;5095343;28;19963;-62
2023/12/29 08:10:45;;;;;;;;;;;20.10;60.90;;;;;;5095276;28;20035;-63
2023/12/29 08:13:11;;;;;;;;;;;20.10;60.90;;;;;;5076423;28;19928;-62
2023/12/29 08:15:37;;;;;;;;;;;20.10;60.90;;;;;;5094626;28;19963;-62
2023/12/29 08:18:03;;;;;;;;;;;20.10;61.00;;;;;;5094921;28;19953;-63
2023/12/29 08:20:28;;;;;;;;;;;20.10;60.80;;;;;;5094159;28;19924;-62
2023/12/29 08:22:54;;;;;;;;;;;20.10;60.80;;;;;;5076490;28;19947;-62
2023/12/29 08:25:20;;;;;;;;;;;20.10;60.70;;;;;;5077244;28;19924;-62
2023/12/29 08:27:45;;;;;;;;;;;20.10;60.60;;;;;;5074877;28;19927;-64
2023/12/29 08:30:11;;;;;;;;;;;20.10;60.60;;;;;;5073705;28;19932;-62
2023/12/29 08:32:36;;;;;;;;;;;20.10;60.80;;;;;;5103438;28;19924;-62
2023/12/29 08:35:03;;;;;;;;;;;20.10;60.80;;;;;;5086292;28;19923;-61
2023/12/29 08:37:28;;;;;;;;;;;20.10;60.90;;;;;;5104973;28;19928;-62
2023/12/29 08:39:54;;;;;;;;;;;20.10;60.80;;;;;;5102530;28;19930;-61
2023/12/29 08:42:20;;;;;;;;;;;20.10;60.90;;;;;;5105083;28;20014;-62
2023/12/29 08:44:45;;;;;;;;;;;20.10;60.90;;;;;;5086380;28;20011;-61
2023/12/29 08:47:11;;;;;;;;;;;20.10;60.90;;;;;;5103530;28;20292;-61
2023/12/29 08:49:37;;;;;;;;;;;20.10;60.90;;;;;;5076695;28;19968;-62
2023/12/29 08:52:02;;;;;;;;;;;20.10;60.90;;;;;;5094533;28;19924;-61
2023/12/29 08:54:28;;;;;;;;;;;20.10;61.00;;;;;;5076464;28;19985;-61
2023/12/29 08:56:53;;;;;;;;;;;20.10;61.00;;;;;;5076509;28;20290;-61
2023/12/29 08:59:19;;;;;;;;;;;20.10;61.00;;;;;;5076411;28;19921;-61
2023/12/29 09:01:44;;;;;;;;;;;20.10;61.00;;;;;;5075946;28;19955;-61
2023/12/29 09:04:10;;;;;;;;;;;20.10;61.00;;;;;;5076700;28;19986;-61
2023/12/29 09:06:35;;;;;;;;;;;20.10;61.00;;;;;;5094852;28;20347;-61
2023/12/29 09:09:01;;;;;;;;;;;20.10;61.10;;;;;;5093777;28;19928;-62
2023/12/29 09:11:26;;;;;;;;;;;20.10;61.20;;;;;;5076234;28;19932;-62
2023/12/29 09:13:52;;;;;;;;;;;20.10;61.20;;;;;;5076393;28;19977;-61
2023/12/29 09:16:17;;;;;;;;;;;20.10;61.20;;;;;;5094459;28;19928;-61
2023/12/29 09:18:43;;;;;;;;;;;20.10;61.30;;;;;;5111417;28;19928;-61
2023/12/29 09:21:08;;;;;;;;;;;20.10;61.30;;;;;;5109807;28;19931;-61
2023/12/29 09:23:37;;;;;;;;;;;20.10;61.30;;;;;;5108624;28;19979;-62
2023/12/29 09:26:02;;;;;;;;;;;20.10;61.30;;;;;;5094447;28;19982;-62
2023/12/29 09:28:28;;;;;;;;;;;20.10;61.30;;;;;;5094430;28;19979;-62
2023/12/29 09:30:53;;;;;;;;;;;20.10;61.40;;;;;;5092645;28;19951;-63
2023/12/29 09:33:19;;;;;;;;;;;20.10;61.30;;;;;;5075062;28;19931;-60
2023/12/29 09:35:44;;;;;;;;;;;20.10;61.40;;;;;;5093046;28;19924;-61
2023/12/29 09:38:10;;;;;;;;;;;20.10;61.40;;;;;;5093304;28;19928;-62
2023/12/29 09:40:36;;;;;;;;;;;20.10;61.40;;;;;;5076352;28;20022;-62
2023/12/29 09:43:01;;;;;;;;;;;20.10;61.40;;;;;;5074624;28;19931;-65
2023/12/29 09:45:27;;;;;;;;;;;20.10;61.30;;;;;;5093039;28;19924;-63
2023/12/29 09:47:53;;;;;;;;;;;20.10;61.30;;;;;;5074952;28;20299;-63
2023/12/29 09:50:19;;;;;;;;;;;20.10;61.30;;;;;;5074558;28;19924;-63
2023/12/29 09:52:44;;;;;;;;;;;20.10;61.30;;;;;;5058140;28;19927;-63
2023/12/29 09:55:10;;;;;;;;;;;20.10;61.10;;;;;;5109364;28;20003;-66
2023/12/29 09:57:39;;;;;;;;;;;20.00;61.10;;;;;;5093050;28;20398;-66
2023/12/29 10:00:05;;;;;;;;;;;20.00;61.10;;;;;;5058292;28;19981;-62
2023/12/29 10:02:31;;;;;;;;;;;20.00;61.30;;;;;;5075659;28;19928;-62
2023/12/29 10:04:56;;;;;;;;;;;20.00;61.30;;;;;;5092777;28;19924;-62
2023/12/29 10:07:25;;;;;;;;;;;20.00;61.40;;;;;;5108393;28;19932;-62
2023/12/29 10:09:58;;;;;;;;;;;20.00;61.40;;;;;;5074875;28;19928;-62
2023/12/29 10:12:24;;;;;;;;;;;20.00;61.50;;;;;;5092337;28;19928;-65
2023/12/29 10:15:06;;;;;;;;;;;20.00;61.40;;;;;;5075772;28;19924;-62
2023/12/29 10:17:52;;;;;;;;;;;20.00;61.40;;;;;;5072993;28;20459;-62
2023/12/29 10:20:27;;;;;;;;;;;20.00;61.30;;;;;;5071573;28;20368;-61
2023/12/29 10:22:59;;;;;;;;;;;20.00;61.20;;;;;;5054977;28;19947;-63
2023/12/29 10:25:24;;;;;;;;;;;20.00;61.10;;;;;;5069792;28;19924;-65
2023/12/29 10:27:50;;;;;;;;;;;19.90;61.00;;;;;;5075185;28;19931;-64
2023/12/29 10:30:15;;;;;;;;;;;19.90;61.00;;;;;;5058406;28;19931;-63
2023/12/29 10:32:41;;;;;;;;;;;19.90;61.10;;;;;;5058011;28;20081;-62
2023/12/29 10:35:10;;;;;;;;;;;19.90;61.20;;;;;;5075079;28;19924;-63
2023/12/29 10:37:36;;;;;;;;;;;19.90;61.20;;;;;;5075123;28;20387;-62
2023/12/29 10:40:01;;;;;;;;;;;19.90;61.30;;;;;;5091867;28;19963;-62
2023/12/29 10:42:28;;;;;;;;;;;19.90;61.30;;;;;;5090204;28;20344;-61
2023/12/29 10:45:07;;;;;;;;;;;19.90;61.30;;;;;;5074304;28;19924;-61
2023/12/29 10:47:32;;;;;;;;;;;19.90;61.40;;;;;;5092214;28;20287;-61
2023/12/29 10:49:58;;;;;;;;;;;19.90;61.30;;;;;;5074183;28;20380;-62
2023/12/29 10:52:24;;;;;;;;;;;19.90;61.30;;;;;;5074942;28;19928;-62
2023/12/29 10:54:49;;;;;;;;;;;19.90;61.30;;;;;;5053496;28;19924;-61
2023/12/29 10:57:15;;;;;;;;;;;19.90;61.40;;;;;;5056680;28;19920;-61
2023/12/29 10:59:40;;;;;;;;;;;19.80;61.30;;;;;;5092440;28;19931;-61
2023/12/29 11:02:08;;;;;;;;;;;19.80;61.20;;;;;;5073064;28;20006;-61
2023/12/29 11:04:33;;;;;;;;;;;19.80;61.30;;;;;;5091230;28;20380;-60
2023/12/29 11:06:59;;;;;;;;;;;19.80;61.30;;;;;;5096452;28;19920;-61
2023/12/29 11:09:28;;;;;;;;;;;19.80;61.30;;;;;;5095930;28;20011;-61
2023/12/29 11:11:55;;;;;;;;;;;19.80;61.30;;;;;;5077183;28;19954;-61
2023/12/29 11:14:21;;;;;;;;;;;19.80;61.30;;;;;;5078043;28;19931;-61
2023/12/29 11:16:46;;;;;;;;;;;19.80;61.30;;;;;;5059129;28;19928;-62
2023/12/29 11:19:13;;;;;;;;;;;19.80;61.40;;;;;;5078857;28;20010;-63
2023/12/29 11:21:38;;;;;;;;;;;19.80;61.30;;;;;;5059594;28;19924;-62
2023/12/29 11:24:04;;;;;;;;;;;19.80;61.20;;;;;;5078180;28;20011;-63
2023/12/29 11:26:30;;;;;;;;;;;19.80;61.10;;;;;;5077355;28;19973;-63
2023/12/29 11:28:55;;;;;;;;;;;19.80;61.10;;;;;;5077238;28;20007;-63
2023/12/29 11:31:21;;;;;;;;;;;19.80;61.10;;;;;;5061998;28;19924;-63
2023/12/29 11:33:48;;;;;;;;;;;19.80;61.00;;;;;;5078810;28;19924;-62
2023/12/29 11:36:18;;;;;;;;;;;19.80;61.00;;;;;;5060502;28;19928;-63
2023/12/29 11:38:47;;;;;;;;;;;19.80;61.00;;;;;;5078350;28;20015;-62
2023/12/29 11:41:25;;;;;;;;;;;19.80;61.00;;;;;;5096583;28;19971;-63
2023/12/29 11:43:57;;;;;;;;;;;19.80;61.00;;;;;;5077064;28;20015;-61
2023/12/29 11:46:32;;;;;;;;;;;19.80;61.00;;;;;;5112554;28;19963;-62
2023/12/29 11:48:58;;;;;;;;;;;19.80;61.00;;;;;;5095763;28;19924;-63
2023/12/29 11:51:33;;;;;;;;;;;19.70;61.00;;;;;;5076485;28;20421;-63
2023/12/29 11:53:59;;;;;;;;;;;19.80;61.00;;;;;;5111741;28;19931;-63
2023/12/29 11:56:24;;;;;;;;;;;19.80;61.00;;;;;;5061392;28;19989;-63
2023/12/29 11:58:50;;;;;;;;;;;19.80;61.10;;;;;;5075986;28;19924;-62
2023/12/29 12:01:32;;;;;;;;;;;19.70;61.00;;;;;;5077751;28;20362;-62
2023/12/29 12:03:58;;;;;;;;;;;19.80;61.10;;;;;;5076969;28;19974;-63
2023/12/29 12:06:39;;;;;;;;;;;19.70;61.10;;;;;;5096109;28;19932;-62
2023/12/29 12:09:18;;;;;;;;;;;19.80;61.10;;;;;;5095831;28;19981;-62
2023/12/29 12:11:43;;;;;;;;;;;19.70;61.10;;;;;;5095110;28;20485;-62
2023/12/29 12:14:09;;;;;;;;;;;19.80;61.20;;;;;;5076420;28;19928;-62
2023/12/29 12:16:47;;;;;;;;;;;19.70;61.10;;;;;;5077909;28;19978;-62
2023/12/29 12:19:12;;;;;;;;;;;19.80;61.20;;;;;;5094657;28;19931;-61
2023/12/29 12:21:38;;;;;;;;;;;19.80;61.20;;;;;;5076963;28;19985;-62
2023/12/29 12:24:03;;;;;;;;;;;19.70;61.10;;;;;;5095328;28;19928;-62
2023/12/29 12:26:30;;;;;;;;;;;19.70;61.10;;;;;;5077107;28;19947;-63
2023/12/29 12:28:55;;;;;;;;;;;19.80;61.00;;;;;;5076448;28;20389;-68
2023/12/29 12:31:21;;;;;;;;;;;19.80;61.00;;;;;;5059955;28;19925;-62
2023/12/29 12:33:55;;;;;;;;;;;19.80;61.20;;;;;;5091854;28;20019;-62
2023/12/29 12:36:21;;;;;;;;;;;19.80;61.20;;;;;;5095465;28;19931;-62
2023/12/29 12:38:53;;;;;;;;;;;19.80;61.20;;;;;;5077286;28;19920;-62
2023/12/29 12:41:18;;;;;;;;;;;19.80;61.10;;;;;;5110205;28;19947;-63
2023/12/29 12:43:45;;;;;;;;;;;19.80;61.20;;;;;;5093210;28;20299;-62
2023/12/29 12:46:10;;;;;;;;;;;19.80;61.10;;;;;;5076492;28;19924;-62
2023/12/29 12:48:40;;;;;;;;;;;19.90;61.10;;;;;;5072958;28;19931;-62
2023/12/29 12:51:06;;;;;;;;;;;19.90;61.20;;;;;;5074544;28;20000;-62
2023/12/29 12:53:31;;;;;;;;;;;19.90;61.10;;;;;;5075881;28;19928;-63
2023/12/29 12:55:57;;;;;;;;;;;19.90;61.10;;;;;;5101526;28;19924;-62
2023/12/29 12:58:22;;;;;;;;;;;19.90;61.10;;;;;;5059944;28;19969;-62
2023/12/29 13:00:48;;;;;;;;;;;19.90;61.10;;;;;;5093614;28;20288;-62
2023/12/29 13:03:14;;;;;;;;;;;19.90;61.10;;;;;;5101711;28;19939;-62
2023/12/29 13:05:39;;;;;;;;;;;19.90;61.10;;;;;;5076196;28;20295;-62
2023/12/29 13:08:05;;;;;;;;;;;20.00;61.10;;;;;;5058190;28;19924;-62
2023/12/29 13:10:30;;;;;;;;;;;20.00;61.10;;;;;;5059147;28;19970;-62
2023/12/29 13:12:56;;;;;;;;;;;20.00;61.10;;;;;;5075874;28;19973;-62
2023/12/29 13:15:22;;;;;;;;;;;20.00;61.10;;;;;;5093722;28;19924;-62
2023/12/29 13:17:51;;;;;;;;;;;20.00;61.10;;;;;;5094556;28;21376;-62
2023/12/29 13:20:16;;;;;;;;;;;20.00;61.00;;;;;;5099038;28;20015;-62
2023/12/29 13:22:42;;;;;;;;;;;20.00;61.00;;;;;;5092982;28;20015;-62
2023/12/29 13:25:08;;;;;;;;;;;20.00;61.00;;;;;;5058690;28;20311;-62
2023/12/29 13:27:36;;;;;;;;;;;20.10;61.00;;;;;;5059470;28;19924;-63
2023/12/29 13:30:01;;;;;;;;;;;20.10;61.00;;;;;;5074964;28;19925;-62
2023/12/29 13:32:30;;;;;;;;;;;20.10;61.00;;;;;;5059253;28;19969;-62
2023/12/29 13:35:08;;;;;;;;;;;20.10;61.00;;;;;;5072631;28;21474;-63
2023/12/29 13:37:33;;;;;;;;;;;20.10;60.90;;;;;;5055333;28;19924;-63
2023/12/29 13:39:59;;;;;;;;;;;20.10;60.90;;;;;;5073598;28;19977;-62
2023/12/29 13:42:24;;;;;;;;;;;20.10;60.90;;;;;;5100238;28;20379;-62
2023/12/29 13:44:50;;;;;;;;;;;20.10;60.90;;;;;;5075557;28;19931;-62
2023/12/29 13:47:16;;;;;;;;;;;20.10;60.80;;;;;;5075532;28;20395;-63
2023/12/29 13:49:42;;;;;;;;;;;20.10;60.80;;;;;;5092772;28;19971;-62
2023/12/29 13:52:08;;;;;;;;;;;20.10;60.80;;;;;;5057996;28;20297;-62
2023/12/29 13:54:43;;;;;;;;;;;20.10;60.80;;;;;;5109974;28;19977;-63
2023/12/29 13:57:08;;;;;;;;;;;20.20;60.80;;;;;;5075026;28;20395;-63
2023/12/29 13:59:34;;;;;;;;;;;20.20;60.80;;;;;;5109934;28;19928;-62
2023/12/29 14:02:02;;;;;;;;;;;20.20;60.70;;;;;;5093480;28;19920;-63
2023/12/29 14:04:28;;;;;;;;;;;20.20;60.60;;;;;;5093073;28;19977;-62
2023/12/29 14:06:55;;;;;;;;;;;20.20;60.60;;;;;;5074584;28;19932;-63
2023/12/29 14:09:20;;;;;;;;;;;20.20;60.50;;;;;;5100486;28;19924;-62
2023/12/29 14:11:46;;;;;;;;;;;20.20;60.60;;;;;;5092540;28;19924;-63